createdAt,value
2019-02-27T00:03:16.648Z,13.27
2019-02-27T00:08:20.381Z,13.90
2019-02-27T00:13:24.945Z,14.07
2019-02-27T00:18:29.126Z,13.43
2019-02-27T00:23:32.810Z,13.60
2019-02-27T00:28:36.456Z,13.67
2019-02-27T00:33:40.104Z,13.80
2019-02-27T00:38:43.864Z,13.00
2019-02-27T00:43:47.597Z,14.30
2019-02-27T00:48:51.264Z,14.03
2019-02-27T00:53:55.963Z,14.00
2019-02-27T00:59:00.822Z,14.43
2019-02-27T01:04:04.586Z,13.90
2019-02-27T01:09:08.749Z,13.57
2019-02-27T01:14:12.470Z,13.60
2019-02-27T01:19:16.152Z,13.53
2019-02-27T01:24:19.809Z,14.47
2019-02-27T01:29:23.462Z,14.33
2019-02-27T01:34:27.107Z,13.30
2019-02-27T01:39:30.777Z,14.13
2019-02-27T01:44:34.521Z,13.77
2019-02-27T01:49:38.259Z,13.93
2019-02-27T01:54:41.909Z,14.03
2019-02-27T01:59:45.625Z,14.00
2019-02-27T02:04:52.945Z,14.57
2019-02-27T02:09:55.243Z,15.13
2019-02-27T02:15:06.905Z,13.93
2019-02-27T02:20:20.353Z,15.20
2019-02-27T02:25:47.435Z,13.90
2019-02-27T02:30:54.435Z,14.53
2019-02-27T02:36:04.143Z,13.87
2019-02-27T02:41:30.001Z,13.63
2019-02-27T02:46:56.565Z,13.77
2019-02-27T02:52:22.968Z,13.13
2019-02-27T02:57:48.485Z,13.43
2019-02-27T03:03:11.256Z,14.00
2019-02-27T03:08:29.619Z,12.67
2019-02-27T03:13:52.382Z,13.70
2019-02-27T03:19:15.069Z,13.93
2019-02-27T03:24:30.750Z,14.30
2019-02-27T03:29:51.999Z,13.60
2019-02-27T03:35:13.945Z,13.77
2019-02-27T03:40:35.412Z,14.13
2019-02-27T03:45:47.089Z,14.97
2019-02-27T03:50:54.782Z,14.30
2019-02-27T03:56:16.660Z,12.87
2019-02-27T04:01:42.500Z,14.40
2019-02-27T04:07:05.331Z,13.70
2019-02-27T04:12:08.997Z,14.80
2019-02-27T04:17:12.680Z,14.30
2019-02-27T04:22:16.615Z,14.63
2019-02-27T04:27:21.200Z,14.93
2019-02-27T04:32:25.174Z,14.23
2019-02-27T04:37:28.918Z,15.13
2019-02-27T04:42:32.614Z,14.50
2019-02-27T04:47:36.290Z,14.57
2019-02-27T04:52:40.009Z,14.10
2019-02-27T04:57:43.666Z,15.17
2019-02-27T05:02:47.324Z,13.90
2019-02-27T05:07:54.125Z,16.27
2019-02-27T05:12:56.366Z,18.70
2019-02-27T05:18:00.024Z,16.10
2019-02-27T05:23:04.286Z,13.17
2019-02-27T05:28:07.938Z,14.03
2019-02-27T05:33:11.582Z,13.73
2019-02-27T05:38:15.324Z,13.73
2019-02-27T05:43:19.020Z,14.33
2019-02-27T05:48:22.760Z,13.90
2019-02-27T05:53:26.414Z,15.77
2019-02-27T05:58:30.122Z,12.53
2019-02-27T06:03:33.780Z,13.07
2019-02-27T06:08:38.146Z,13.37
2019-02-27T06:13:41.958Z,12.80
2019-02-27T06:18:45.603Z,13.73
2019-02-27T06:23:49.258Z,12.13
2019-02-27T06:28:52.981Z,12.57
2019-02-27T06:33:56.668Z,13.17
2019-02-27T06:39:00.960Z,12.83
2019-02-27T06:44:04.759Z,12.80
2019-02-27T06:49:08.483Z,12.77
2019-02-27T06:54:12.209Z,13.40
2019-02-27T06:59:17.884Z,13.80
2019-02-27T07:04:21.321Z,13.37
2019-02-27T07:09:24.976Z,12.63
2019-02-27T07:14:28.715Z,13.07
2019-02-27T07:19:32.381Z,12.30
2019-02-27T07:24:36.039Z,13.10
2019-02-27T07:29:39.684Z,13.07
2019-02-27T07:34:43.416Z,12.98
2019-02-27T07:39:47.671Z,12.35
2019-02-27T07:44:51.893Z,13.30
2019-02-27T07:49:56.193Z,12.58
2019-02-27T07:55:00.423Z,13.40
2019-02-27T08:00:04.555Z,13.45
2019-02-27T08:05:09.052Z,13.00
2019-02-27T08:10:17.993Z,12.35
2019-02-27T08:15:22.182Z,13.70
2019-02-27T08:20:26.349Z,12.80
2019-02-27T08:25:30.624Z,14.03
2019-02-27T08:30:34.816Z,13.48
2019-02-27T08:35:39.009Z,12.45
2019-02-27T08:40:42.633Z,13.80
2019-02-27T08:45:46.828Z,14.23
2019-02-27T08:50:51.105Z,13.05
2019-02-27T08:55:54.854Z,13.90
2019-02-27T09:00:59.748Z,13.93
2019-02-27T09:06:03.947Z,13.10
2019-02-27T09:11:08.144Z,13.18
2019-02-27T09:16:12.338Z,13.58
2019-02-27T09:21:17.232Z,13.70
2019-02-27T09:26:21.556Z,12.93
2019-02-27T09:31:25.761Z,14.10
2019-02-27T09:36:29.990Z,14.00
2019-02-27T09:41:34.189Z,13.38
2019-02-27T09:46:37.855Z,13.25
2019-02-27T09:51:42.154Z,13.70
2019-02-27T09:56:46.355Z,14.15
2019-02-27T10:01:50.550Z,13.05
2019-02-27T10:06:54.762Z,13.35
2019-02-27T10:11:58.956Z,13.58
2019-02-27T10:17:03.159Z,12.55
2019-02-27T10:22:06.758Z,12.75
2019-02-27T10:27:10.943Z,13.10
2019-02-27T10:32:15.145Z,12.78
2019-02-27T10:37:19.448Z,12.78
2019-02-27T10:42:23.271Z,13.10
2019-02-27T10:47:27.539Z,13.40
2019-02-27T10:52:31.733Z,13.15
2019-02-27T10:57:38.341Z,12.70
2019-02-27T11:02:41.874Z,13.50
2019-02-27T11:07:46.603Z,12.85
2019-02-27T11:12:51.049Z,12.80
2019-02-27T11:17:55.627Z,12.35
2019-02-27T11:22:59.833Z,13.18
2019-02-27T11:28:04.127Z,13.50
2019-02-27T11:33:08.518Z,13.32
2019-02-27T11:38:12.850Z,13.18
2019-02-27T11:43:17.270Z,11.97
2019-02-27T11:48:22.861Z,12.90
2019-02-27T11:53:27.339Z,12.82
2019-02-27T11:58:31.908Z,12.25
2019-02-27T12:03:36.107Z,12.03
2019-02-27T12:08:40.307Z,11.50
2019-02-27T12:13:44.515Z,11.95
2019-02-27T12:18:48.709Z,9.98
2019-02-27T12:23:52.924Z,10.43
2019-02-27T12:28:57.134Z,9.48
2019-02-27T12:34:03.343Z,9.30
2019-02-27T12:39:08.607Z,8.65
2019-02-27T12:44:12.255Z,8.78
2019-02-27T12:49:16.886Z,8.38
2019-02-27T12:54:22.416Z,9.18
2019-02-27T12:59:26.724Z,7.80
2019-02-27T13:04:30.916Z,7.00
2019-02-27T13:09:35.118Z,7.42
2019-02-27T13:14:39.281Z,7.10
2019-02-27T13:19:43.483Z,6.65
2019-02-27T13:24:50.262Z,7.00
2019-02-27T13:29:56.744Z,7.20
2019-02-27T13:34:59.042Z,5.72
2019-02-27T13:40:03.242Z,6.58
2019-02-27T13:45:12.667Z,7.37
2019-02-27T13:50:16.821Z,7.50
2019-02-27T13:55:21.824Z,8.48
2019-02-27T14:00:28.340Z,8.85
2019-02-27T14:05:35.416Z,10.98
2019-02-27T14:10:38.494Z,10.85
2019-02-27T14:15:42.811Z,10.95
2019-02-27T14:20:47.065Z,11.88
2019-02-27T14:25:51.261Z,11.35
2019-02-27T14:30:55.467Z,10.38
2019-02-27T14:35:59.761Z,11.05
2019-02-27T14:41:04.017Z,10.58
2019-02-27T14:46:11.442Z,10.13
2019-02-27T14:51:14.276Z,10.78
2019-02-27T14:56:18.479Z,10.43
2019-02-27T15:01:22.709Z,10.13
2019-02-27T15:06:27.026Z,9.58
2019-02-27T15:11:31.225Z,8.38
2019-02-27T15:18:55.825Z,8.65
2019-02-27T15:24:01.351Z,9.73
2019-02-27T15:29:05.750Z,9.88
2019-02-27T15:34:12.144Z,9.53
2019-02-27T15:39:20.306Z,8.95
2019-02-27T15:44:22.648Z,9.98
2019-02-27T15:49:26.922Z,9.55
2019-02-27T15:54:31.118Z,9.13
2019-02-27T15:59:40.873Z,8.53
2019-02-27T16:04:41.359Z,9.13
2019-02-27T16:09:46.175Z,9.15
2019-02-27T16:14:50.595Z,8.98
2019-02-27T16:19:54.872Z,8.98
2019-02-27T16:24:58.636Z,10.45
2019-02-27T16:30:02.364Z,9.93
2019-02-27T16:35:07.847Z,9.13
2019-02-27T16:40:17.658Z,9.73
2019-02-27T16:45:22.681Z,10.03
2019-02-27T16:50:28.126Z,11.50
2019-02-27T16:55:35.706Z,10.82
2019-02-27T17:00:38.900Z,10.60
2019-02-27T17:05:43.906Z,12.07
2019-02-27T17:10:51.697Z,11.60
2019-02-27T17:15:54.241Z,10.63
2019-02-27T17:20:58.573Z,28.90
2019-02-27T17:26:04.386Z,10.75
2019-02-27T17:31:11.746Z,10.68
2019-02-27T17:36:14.747Z,9.35
2019-02-27T17:41:18.942Z,10.20
2019-02-27T17:46:22.786Z,10.35
2019-02-27T17:51:27.176Z,10.15
2019-02-27T17:56:31.679Z,10.72
2019-02-27T18:01:36.131Z,10.30
2019-02-27T18:06:40.328Z,12.58
2019-02-27T18:11:44.717Z,11.03
2019-02-27T18:16:50.144Z,9.60
2019-02-27T18:21:55.395Z,9.58
2019-02-27T18:26:59.892Z,9.48
2019-02-27T18:32:06.494Z,9.08
2019-02-27T18:37:19.086Z,8.85
2019-02-27T18:42:25.082Z,8.58
2019-02-27T18:47:29.364Z,9.33
2019-02-27T18:52:33.789Z,10.75
2019-02-27T18:57:39.079Z,15.95
2019-02-27T19:02:43.666Z,15.38
2019-02-27T19:07:48.027Z,11.97
2019-02-27T19:12:52.900Z,10.28
2019-02-27T19:17:57.341Z,9.08
2019-02-27T19:23:01.632Z,9.98
2019-02-27T19:28:06.614Z,9.80
2019-02-27T19:33:10.818Z,12.15
2019-02-27T19:38:15.423Z,10.70
2019-02-27T19:43:21.149Z,9.73
2019-02-27T19:48:26.283Z,10.50
2019-02-27T19:53:31.746Z,9.85
2019-02-27T19:58:35.998Z,10.43
2019-02-27T20:03:40.229Z,11.00
2019-02-27T20:08:45.585Z,11.12
2019-02-27T20:13:50.247Z,11.30
2019-02-27T20:18:55.178Z,10.60
2019-02-27T20:24:01.531Z,11.43
2019-02-27T20:29:05.903Z,11.60
2019-02-27T20:34:11.807Z,11.85
2019-02-27T20:39:16.255Z,10.30
2019-02-27T20:44:20.478Z,9.15
2019-02-27T20:49:24.774Z,9.88
2019-02-27T20:54:29.051Z,10.45
2019-02-27T20:59:33.359Z,9.48
2019-02-27T21:04:39.108Z,10.15
2019-02-27T21:09:45.195Z,9.90
2019-02-27T21:14:49.454Z,10.72
2019-02-27T21:19:53.676Z,10.23
2019-02-27T21:24:57.957Z,10.43
2019-02-27T21:30:02.180Z,10.80
2019-02-27T21:35:06.600Z,10.28
2019-02-27T21:40:11.759Z,9.75
2019-02-27T21:45:18.044Z,10.00
2019-02-27T21:50:22.306Z,9.43
2019-02-27T21:55:26.522Z,9.83
2019-02-27T22:00:31.220Z,9.63
2019-02-27T22:05:42.528Z,9.28
2019-02-27T22:10:41.437Z,9.65
2019-02-27T22:15:45.626Z,9.45
2019-02-27T22:20:49.923Z,10.23
2019-02-27T22:25:54.116Z,9.98
2019-02-27T22:30:58.395Z,9.43
2019-02-27T22:36:03.045Z,9.58
2019-02-27T22:41:09.533Z,10.15
2019-02-27T22:46:13.682Z,10.10
2019-02-27T22:51:19.134Z,10.15
2019-02-27T22:56:23.318Z,10.25
2019-02-27T23:01:34.003Z,9.97
2019-02-27T23:06:38.304Z,9.55
2019-02-27T23:11:43.195Z,9.10
2019-02-27T23:16:47.389Z,9.35
2019-02-27T23:21:51.741Z,9.10
2019-02-27T23:26:55.932Z,8.48
2019-02-27T23:32:00.103Z,8.60
2019-02-27T23:37:04.477Z,8.68
2019-02-27T23:42:08.932Z,9.03
2019-02-27T23:47:13.160Z,8.50
2019-02-27T23:52:19.344Z,9.98
2019-02-27T23:57:24.458Z,9.18
